createdAt,value
2022-12-23T00:02:02.719Z,10.90
2022-12-23T00:04:30.717Z,12.10
2022-12-23T00:06:58.379Z,11.00
2022-12-23T00:09:26.128Z,11.80
2022-12-23T00:12:13.731Z,12.00
2022-12-23T00:14:57.428Z,13.50
2022-12-23T00:17:25.135Z,13.40
2022-12-23T00:19:52.808Z,13.40
2022-12-23T00:22:40.497Z,14.40
2022-12-23T00:25:08.577Z,13.00
2022-12-23T00:27:37.842Z,13.20
2022-12-23T00:30:08.067Z,12.20
2022-12-23T00:32:36.343Z,14.20
2022-12-23T00:35:04.345Z,12.00
2022-12-23T00:37:32.423Z,14.70
2022-12-23T00:40:15.984Z,11.70
2022-12-23T00:42:59.617Z,13.50
2022-12-23T00:45:27.419Z,11.70
2022-12-23T00:48:11.122Z,12.00
2022-12-23T00:50:40.142Z,12.20
2022-12-23T00:53:08.053Z,13.20
2022-12-23T00:55:35.817Z,11.40
2022-12-23T00:58:03.626Z,11.80
2022-12-23T01:00:47.741Z,10.10
2022-12-23T01:03:31.770Z,11.60
2022-12-23T01:06:01.145Z,10.90
2022-12-23T01:08:28.949Z,11.20
2022-12-23T01:10:56.703Z,11.90
2022-12-23T01:13:24.421Z,13.10
2022-12-23T01:15:52.164Z,11.70
2022-12-23T01:18:19.899Z,12.70
2022-12-23T01:20:47.611Z,11.10
2022-12-23T01:23:15.391Z,11.30
2022-12-23T01:25:43.095Z,10.70
2022-12-23T01:28:10.841Z,11.60
2022-12-23T01:30:38.526Z,13.70
2022-12-23T01:33:06.297Z,10.70
2022-12-23T01:35:36.453Z,10.20
2022-12-23T01:38:04.189Z,10.30
2022-12-23T01:40:37.319Z,11.10
2022-12-23T01:43:05.087Z,10.50
2022-12-23T01:45:33.447Z,10.40
2022-12-23T01:48:06.724Z,9.30
2022-12-23T01:50:38.684Z,10.30
2022-12-23T01:53:19.799Z,10.50
2022-12-23T01:56:03.526Z,11.50
2022-12-23T01:58:51.239Z,10.00
2022-12-23T02:01:35.018Z,10.40
2022-12-23T02:04:06.302Z,10.20
2022-12-23T02:06:55.355Z,10.80
2022-12-23T02:09:42.584Z,10.00
2022-12-23T02:12:41.600Z,10.40
2022-12-23T02:15:44.142Z,11.70
2022-12-23T02:18:26.988Z,10.10
2022-12-23T02:21:27.650Z,11.80
2022-12-23T02:23:58.745Z,11.40
2022-12-23T02:26:46.523Z,9.80
2022-12-23T02:29:46.325Z,10.50
2022-12-23T02:32:55.167Z,10.30
2022-12-23T02:35:49.008Z,10.50
2022-12-23T02:38:23.948Z,12.00
2022-12-23T02:40:57.016Z,11.40
2022-12-23T02:43:43.707Z,9.90
2022-12-23T02:46:14.025Z,10.30
2022-12-23T02:49:00.642Z,10.60
2022-12-23T02:51:34.081Z,14.70
2022-12-23T02:54:08.152Z,14.00
2022-12-23T02:56:39.708Z,13.90
2022-12-23T02:59:17.288Z,12.30
2022-12-23T03:01:46.203Z,11.20
2022-12-23T03:04:14.483Z,10.80
2022-12-23T03:06:46.338Z,11.80
2022-12-23T03:09:32.577Z,10.40
2022-12-23T03:12:36.445Z,10.60
2022-12-23T03:15:09.858Z,10.80
2022-12-23T03:18:09.426Z,11.90
2022-12-23T03:20:53.063Z,10.00
2022-12-23T03:23:29.351Z,11.80
2022-12-23T03:26:08.863Z,10.60
2022-12-23T03:28:57.954Z,10.80
2022-12-23T03:31:29.700Z,10.50
2022-12-23T03:34:03.816Z,10.90
2022-12-23T03:36:45.904Z,11.00
2022-12-23T03:39:19.532Z,12.00
2022-12-23T03:42:01.003Z,11.90
2022-12-23T03:44:35.476Z,11.10
2022-12-23T03:47:13.827Z,10.90
2022-12-23T03:49:47.478Z,11.10
2022-12-23T03:52:21.699Z,11.50
2022-12-23T03:54:59.211Z,10.00
2022-12-23T03:57:46.339Z,10.40
2022-12-23T04:00:14.197Z,11.50
2022-12-23T04:02:52.398Z,10.60
2022-12-23T04:05:27.123Z,10.60
2022-12-23T04:08:20.278Z,10.50
2022-12-23T04:10:48.616Z,10.90
2022-12-23T04:13:16.305Z,11.00
2022-12-23T04:15:44.373Z,10.80
2022-12-23T04:18:12.217Z,10.10
2022-12-23T04:20:40.016Z,9.70
2022-12-23T04:23:07.700Z,10.20
2022-12-23T04:25:35.421Z,10.90
2022-12-23T04:28:03.229Z,11.30
2022-12-23T04:30:34.470Z,11.20
2022-12-23T04:33:02.802Z,11.10
2022-12-23T04:35:31.014Z,10.90
2022-12-23T04:37:58.705Z,11.30
2022-12-23T04:40:26.442Z,11.90
2022-12-23T04:42:54.102Z,11.50
2022-12-23T04:45:21.737Z,11.60
2022-12-23T04:47:49.476Z,10.40
2022-12-23T04:50:17.782Z,10.00
2022-12-23T04:52:45.470Z,10.30
2022-12-23T04:55:13.175Z,10.60
2022-12-23T04:57:40.978Z,10.90
2022-12-23T05:00:09.334Z,9.80
2022-12-23T05:02:37.160Z,10.00
2022-12-23T05:05:05.276Z,10.60
2022-12-23T05:07:32.931Z,9.70
2022-12-23T05:10:02.408Z,9.20
2022-12-23T05:12:31.239Z,10.70
2022-12-23T05:14:59.150Z,9.90
2022-12-23T05:17:26.874Z,12.00
2022-12-23T05:19:54.543Z,42.60
2022-12-23T05:22:22.218Z,27.80
2022-12-23T05:24:49.868Z,10.70
2022-12-23T05:27:17.603Z,25.50
2022-12-23T05:29:45.279Z,9.90
2022-12-23T05:32:13.004Z,10.50
2022-12-23T05:34:40.683Z,10.70
2022-12-23T05:37:08.430Z,11.50
2022-12-23T05:39:36.321Z,10.40
2022-12-23T05:42:04.143Z,10.70
2022-12-23T05:44:31.941Z,10.20
2022-12-23T05:47:00.085Z,14.10
2022-12-23T05:49:27.796Z,10.50
2022-12-23T05:51:55.549Z,10.60
2022-12-23T05:54:23.321Z,8.40
2022-12-23T05:56:51.009Z,10.10
2022-12-23T05:59:19.722Z,10.10
2022-12-23T06:01:47.456Z,10.50
2022-12-23T06:04:15.248Z,12.80
2022-12-23T06:06:42.970Z,11.90
2022-12-23T06:09:10.751Z,12.00
2022-12-23T06:11:38.436Z,29.00
2022-12-23T06:14:07.409Z,14.50
2022-12-23T06:16:35.254Z,11.90
2022-12-23T06:19:03.580Z,12.00
2022-12-23T06:21:31.923Z,9.60
2022-12-23T06:23:59.682Z,10.20
2022-12-23T06:26:27.645Z,10.30
2022-12-23T06:28:55.366Z,15.50
2022-12-23T06:31:23.138Z,13.50
2022-12-23T06:33:50.947Z,14.70
2022-12-23T06:36:19.440Z,13.60
2022-12-23T06:38:47.135Z,11.90
2022-12-23T06:41:14.872Z,13.40
2022-12-23T06:43:42.634Z,17.60
2022-12-23T06:46:10.368Z,17.00
2022-12-23T06:48:38.137Z,16.50
2022-12-23T06:51:05.990Z,12.00
2022-12-23T06:53:33.724Z,11.50
2022-12-23T06:56:03.106Z,11.40
2022-12-23T06:58:31.133Z,13.50
2022-12-23T07:00:58.862Z,16.00
2022-12-23T07:03:26.713Z,20.50
2022-12-23T07:05:54.402Z,18.60
2022-12-23T07:08:22.319Z,13.80
2022-12-23T07:10:50.167Z,15.10
2022-12-23T07:13:18.056Z,13.90
2022-12-23T07:15:45.739Z,23.20
2022-12-23T07:18:13.904Z,26.70
2022-12-23T07:20:41.672Z,18.80
2022-12-23T07:23:09.424Z,32.10
2022-12-23T07:25:37.067Z,44.80
2022-12-23T07:28:05.196Z,69.10
2022-12-23T07:30:32.927Z,103.90
2022-12-23T07:33:00.577Z,64.40
2022-12-23T07:35:28.518Z,82.10
2022-12-23T07:37:56.632Z,45.50
2022-12-23T07:40:26.942Z,26.60
2022-12-23T07:42:57.119Z,16.80
2022-12-23T07:45:28.987Z,14.50
2022-12-23T07:47:59.021Z,15.60
2022-12-23T07:50:27.913Z,19.90
2022-12-23T07:52:56.006Z,16.60
2022-12-23T07:55:23.832Z,17.30
2022-12-23T07:57:52.340Z,21.00
2022-12-23T08:00:20.992Z,21.80
2022-12-23T08:02:48.850Z,43.50
2022-12-23T08:05:16.943Z,38.70
2022-12-23T08:07:45.305Z,43.30
2022-12-23T08:10:13.255Z,28.10
2022-12-23T08:12:40.977Z,39.60
2022-12-23T08:15:09.256Z,34.30
2022-12-23T08:17:36.935Z,30.20
2022-12-23T08:20:05.076Z,40.80
2022-12-23T08:22:32.741Z,40.40
2022-12-23T08:25:00.473Z,66.30
2022-12-23T08:27:28.426Z,38.60
2022-12-23T08:29:56.200Z,33.60
2022-12-23T08:32:27.512Z,43.30
2022-12-23T08:35:01.909Z,46.90
2022-12-23T08:37:30.126Z,61.80
2022-12-23T08:39:58.033Z,33.60
2022-12-23T08:42:26.122Z,29.20
2022-12-23T08:44:55.758Z,27.80
2022-12-23T08:47:23.694Z,26.00
2022-12-23T08:49:51.716Z,37.10
2022-12-23T08:52:19.637Z,30.90
2022-12-23T08:54:47.722Z,23.00
2022-12-23T08:57:18.122Z,21.40
2022-12-23T08:59:47.072Z,26.00
2022-12-23T09:02:14.997Z,22.20
2022-12-23T09:04:42.922Z,27.80
2022-12-23T09:07:10.662Z,38.00
2022-12-23T09:09:38.447Z,29.60
2022-12-23T09:12:06.304Z,25.90
2022-12-23T09:14:34.020Z,32.70
2022-12-23T09:17:01.711Z,20.80
2022-12-23T09:19:29.357Z,21.40
2022-12-23T09:21:57.000Z,24.50
2022-12-23T09:24:24.664Z,24.90
2022-12-23T09:26:52.381Z,23.90
2022-12-23T09:29:20.100Z,24.80
2022-12-23T09:31:47.797Z,23.30
2022-12-23T09:34:15.570Z,20.50
2022-12-23T09:36:43.328Z,20.60
2022-12-23T09:39:11.011Z,22.70
2022-12-23T09:41:48.703Z,22.20
2022-12-23T09:44:43.275Z,22.40
2022-12-23T09:47:15.821Z,30.20
2022-12-23T09:49:52.453Z,24.70
2022-12-23T09:52:27.144Z,24.80
2022-12-23T09:54:55.388Z,21.10
2022-12-23T09:57:36.189Z,21.00
2022-12-23T10:00:14.108Z,22.60
2022-12-23T10:03:01.749Z,22.80
2022-12-23T10:05:47.251Z,24.10
2022-12-23T10:08:29.178Z,23.40
2022-12-23T10:11:02.420Z,23.00
2022-12-23T10:13:35.715Z,24.10
2022-12-23T10:16:30.427Z,20.30
2022-12-23T10:19:29.975Z,24.80
2022-12-23T10:22:06.415Z,25.20
2022-12-23T10:24:40.753Z,22.40
2022-12-23T10:27:25.112Z,20.60
2022-12-23T10:29:52.852Z,21.10
2022-12-23T10:32:26.058Z,20.20
2022-12-23T10:35:36.213Z,22.60
2022-12-23T10:38:30.934Z,29.70
2022-12-23T10:41:30.428Z,28.50
2022-12-23T10:44:20.811Z,34.00
2022-12-23T10:47:24.960Z,28.90
2022-12-23T10:50:18.505Z,25.00
2022-12-23T10:52:47.799Z,23.70
2022-12-23T10:55:33.806Z,21.90
2022-12-23T10:58:18.392Z,25.60
2022-12-23T11:00:53.811Z,23.20
2022-12-23T11:03:23.428Z,22.00
2022-12-23T11:05:53.514Z,20.60
2022-12-23T11:08:23.683Z,38.60
2022-12-23T11:10:51.747Z,58.60
2022-12-23T11:13:46.271Z,31.90
2022-12-23T11:16:30.036Z,25.70
2022-12-23T11:19:03.004Z,22.40
2022-12-23T11:21:32.675Z,22.60
2022-12-23T11:24:23.396Z,80.00
2022-12-23T11:27:06.165Z,36.20
2022-12-23T11:29:47.009Z,24.90
2022-12-23T11:32:24.101Z,15.60
2022-12-23T11:34:52.432Z,18.30
2022-12-23T11:37:28.265Z,23.90
2022-12-23T11:39:56.080Z,22.60
2022-12-23T11:42:29.630Z,36.50
2022-12-23T11:45:00.623Z,59.90
2022-12-23T11:47:36.012Z,63.30
2022-12-23T11:50:20.497Z,54.20
2022-12-23T11:52:53.494Z,45.60
2022-12-23T11:55:29.713Z,50.60
2022-12-23T11:57:57.472Z,44.70
2022-12-23T12:00:30.151Z,57.50
2022-12-23T12:03:04.883Z,54.20
2022-12-23T12:05:40.622Z,46.40
2022-12-23T12:08:16.297Z,46.60
2022-12-23T12:10:44.268Z,29.20
2022-12-23T12:13:39.994Z,32.80
2022-12-23T12:16:33.746Z,16.60
2022-12-23T12:19:12.581Z,17.90
2022-12-23T12:21:40.221Z,24.60
2022-12-23T12:24:22.522Z,31.10
2022-12-23T12:27:00.736Z,24.10
2022-12-23T12:29:51.235Z,21.60
2022-12-23T12:32:50.061Z,24.50
2022-12-23T12:35:53.649Z,31.60
2022-12-23T12:38:26.337Z,26.10
2022-12-23T12:41:11.358Z,26.00
2022-12-23T12:43:48.093Z,29.10
2022-12-23T12:46:18.740Z,24.00
2022-12-23T12:49:20.370Z,27.30
2022-12-23T12:52:19.956Z,19.70
2022-12-23T12:55:13.714Z,14.20
2022-12-23T12:57:41.728Z,18.10
2022-12-23T13:00:21.570Z,20.80
2022-12-23T13:02:59.507Z,16.50
2022-12-23T13:05:54.571Z,18.40
2022-12-23T13:08:30.116Z,21.50
2022-12-23T13:11:37.675Z,22.30
2022-12-23T13:14:19.828Z,20.00
2022-12-23T13:16:50.695Z,39.10
2022-12-23T13:19:29.665Z,33.90
2022-12-23T13:22:03.306Z,32.30
2022-12-23T13:24:33.928Z,21.00
2022-12-23T13:27:07.404Z,23.10
2022-12-23T13:30:07.015Z,41.90
2022-12-23T13:33:06.782Z,60.50
2022-12-23T13:35:51.605Z,91.50
2022-12-23T13:38:35.136Z,62.00
2022-12-23T13:41:34.633Z,55.00
2022-12-23T13:44:07.328Z,62.40
2022-12-23T13:47:06.827Z,45.40
2022-12-23T13:49:34.570Z,46.10
2022-12-23T13:52:05.422Z,37.30
2022-12-23T13:55:04.945Z,32.90
2022-12-23T13:57:47.335Z,29.80
2022-12-23T14:00:18.900Z,32.30
2022-12-23T14:03:05.555Z,29.90
2022-12-23T14:05:41.225Z,32.30
2022-12-23T14:08:27.007Z,29.70
2022-12-23T14:11:03.022Z,28.90
2022-12-23T14:13:40.079Z,26.90
2022-12-23T14:16:10.993Z,25.70
2022-12-23T14:19:02.531Z,23.50
2022-12-23T14:21:33.198Z,27.20
2022-12-23T14:24:22.959Z,22.60
2022-12-23T14:27:21.548Z,36.10
2022-12-23T14:30:17.376Z,97.30
2022-12-23T14:33:03.125Z,42.60
2022-12-23T14:35:40.286Z,76.10
2022-12-23T14:38:16.266Z,87.00
2022-12-23T14:40:50.333Z,103.30
2022-12-23T14:43:52.697Z,115.10
2022-12-23T14:46:50.156Z,112.70
2022-12-23T14:49:38.751Z,69.80
2022-12-23T14:52:44.968Z,50.50
2022-12-23T14:55:31.523Z,42.00
2022-12-23T14:58:05.761Z,35.30
2022-12-23T15:00:46.312Z,30.60
2022-12-23T15:03:16.020Z,28.40
2022-12-23T15:05:43.807Z,32.50
2022-12-23T15:08:30.540Z,58.90
2022-12-23T15:10:59.275Z,56.40
2022-12-23T15:13:29.324Z,35.70
2022-12-23T15:16:01.376Z,23.60
2022-12-23T15:18:29.797Z,20.90
2022-12-23T15:21:18.931Z,20.10
2022-12-23T15:23:50.886Z,29.80
2022-12-23T15:26:20.601Z,29.60
2022-12-23T15:28:48.484Z,29.90
2022-12-23T15:31:26.283Z,32.90
2022-12-23T15:34:05.300Z,31.80
2022-12-23T15:36:37.100Z,29.90
2022-12-23T15:39:14.866Z,28.70
2022-12-23T15:41:45.222Z,30.80
2022-12-23T15:44:19.247Z,36.10
2022-12-23T15:46:47.109Z,35.50
2022-12-23T15:49:15.081Z,32.90
2022-12-23T15:54:57.464Z,35.00
2022-12-23T15:57:28.300Z,32.40
2022-12-23T15:59:58.426Z,29.90
2022-12-23T16:02:59.821Z,37.60
2022-12-23T16:05:32.172Z,38.30
2022-12-23T16:08:16.261Z,39.70
2022-12-23T16:10:55.971Z,29.40
2022-12-23T16:13:24.186Z,34.00
2022-12-23T16:15:51.919Z,48.10
2022-12-23T16:18:19.550Z,42.00
2022-12-23T16:20:56.537Z,53.90
2022-12-23T16:23:29.249Z,54.60
2022-12-23T16:26:00.209Z,85.90
2022-12-23T16:28:35.181Z,55.10
2022-12-23T16:31:06.848Z,81.60
2022-12-23T16:33:39.698Z,44.00
2022-12-23T16:36:26.466Z,49.30
2022-12-23T16:39:02.289Z,52.30
2022-12-23T16:41:30.011Z,47.00
2022-12-23T16:43:58.456Z,45.50
2022-12-23T16:46:27.831Z,46.60
2022-12-23T16:48:58.944Z,43.20
2022-12-23T16:51:28.683Z,40.00
2022-12-23T16:53:57.689Z,34.60
2022-12-23T16:56:31.744Z,34.30
2022-12-23T16:58:59.471Z,33.90
2022-12-23T17:01:33.650Z,38.90
2022-12-23T17:04:01.326Z,39.40
2022-12-23T17:06:29.154Z,45.60
2022-12-23T17:08:57.022Z,38.00
2022-12-23T17:11:40.655Z,40.60
2022-12-23T17:14:16.169Z,56.00
2022-12-23T17:16:45.635Z,43.90
2022-12-23T17:19:13.479Z,44.80
2022-12-23T17:21:44.152Z,46.20
2022-12-23T17:24:27.805Z,33.20
2022-12-23T17:26:56.989Z,32.50
2022-12-23T17:29:25.033Z,28.80
2022-12-23T17:31:53.158Z,32.70
2022-12-23T17:34:24.164Z,29.20
2022-12-23T17:36:52.867Z,29.70
2022-12-23T17:39:22.332Z,36.30
2022-12-23T17:41:50.106Z,33.30
2022-12-23T17:44:18.619Z,33.50
2022-12-23T17:46:47.084Z,55.20
2022-12-23T17:49:14.984Z,31.80
2022-12-23T17:51:43.303Z,31.80
2022-12-23T17:54:27.495Z,31.00
2022-12-23T17:56:55.155Z,31.30
2022-12-23T17:59:22.843Z,26.50
2022-12-23T18:01:50.854Z,25.80
2022-12-23T18:04:18.722Z,27.10
2022-12-23T18:06:46.387Z,34.70
2022-12-23T18:09:14.032Z,34.30
2022-12-23T18:11:44.729Z,36.60
2022-12-23T18:14:28.192Z,33.70
2022-12-23T18:16:56.101Z,29.90
2022-12-23T18:19:24.420Z,31.10
2022-12-23T18:21:52.810Z,25.70
2022-12-23T18:24:20.526Z,28.90
2022-12-23T18:26:48.201Z,26.10
2022-12-23T18:29:15.890Z,22.60
2022-12-23T18:31:50.901Z,22.40
2022-12-23T18:34:20.349Z,43.90
2022-12-23T18:36:48.425Z,30.50
2022-12-23T18:39:16.862Z,19.90
2022-12-23T18:41:44.537Z,22.20
2022-12-23T18:44:18.556Z,25.40
2022-12-23T18:46:47.283Z,26.70
2022-12-23T18:49:15.005Z,28.50
2022-12-23T18:51:43.360Z,28.40
2022-12-23T18:54:15.568Z,29.80
2022-12-23T18:56:43.737Z,44.40
2022-12-23T18:59:28.969Z,29.10
2022-12-23T19:01:58.507Z,39.20
2022-12-23T19:04:27.471Z,42.00
2022-12-23T19:06:57.111Z,84.90
2022-12-23T19:09:25.059Z,45.90
2022-12-23T19:11:54.040Z,51.80
2022-12-23T19:14:22.313Z,30.60
2022-12-23T19:16:52.275Z,28.30
2022-12-23T19:19:21.346Z,36.50
2022-12-23T19:21:49.093Z,23.50
2022-12-23T19:24:16.811Z,24.20
2022-12-23T19:26:44.517Z,28.60
2022-12-23T19:29:12.361Z,24.80
2022-12-23T19:31:40.396Z,31.80
2022-12-23T19:34:12.907Z,39.10
2022-12-23T19:36:44.463Z,28.40
2022-12-23T19:39:16.566Z,29.50
2022-12-23T19:41:45.523Z,21.70
2022-12-23T19:44:14.198Z,21.90
2022-12-23T19:46:42.228Z,24.80
2022-12-23T19:49:15.665Z,27.60
2022-12-23T19:51:47.336Z,30.80
2022-12-23T19:54:15.432Z,21.60
2022-12-23T19:56:43.288Z,19.90
2022-12-23T19:59:11.903Z,19.80
2022-12-23T20:01:39.651Z,24.20
2022-12-23T20:04:07.360Z,19.20
2022-12-23T20:06:38.422Z,28.50
2022-12-23T20:09:08.742Z,33.00
2022-12-23T20:11:39.843Z,25.30
2022-12-23T20:14:08.935Z,63.00
2022-12-23T20:16:37.981Z,30.30
2022-12-23T20:19:06.660Z,49.10
2022-12-23T20:21:37.553Z,25.00
2022-12-23T20:24:06.281Z,42.20
2022-12-23T20:26:34.437Z,40.50
2022-12-23T20:29:02.194Z,61.60
2022-12-23T20:31:32.681Z,37.40
2022-12-23T20:34:02.372Z,38.30
2022-12-23T20:36:32.459Z,38.20
2022-12-23T20:39:02.066Z,57.30
2022-12-23T20:41:31.704Z,27.10
2022-12-23T20:44:32.580Z,22.00
2022-12-23T20:46:47.749Z,21.40
2022-12-23T20:49:15.559Z,35.60
2022-12-23T20:51:43.346Z,43.70
2022-12-23T20:54:11.063Z,43.30
2022-12-23T20:56:38.724Z,44.40
2022-12-23T20:59:06.402Z,26.20
2022-12-23T21:01:37.910Z,22.40
2022-12-23T21:04:22.705Z,20.90
2022-12-23T21:06:50.506Z,20.50
2022-12-23T21:09:18.162Z,23.70
2022-12-23T21:11:47.716Z,20.90
2022-12-23T21:14:15.877Z,20.90
2022-12-23T21:16:44.325Z,20.00
2022-12-23T21:19:21.213Z,22.10
2022-12-23T21:21:49.970Z,24.90
2022-12-23T21:24:18.838Z,41.20
2022-12-23T21:26:55.619Z,119.70
2022-12-23T21:29:24.140Z,29.10
2022-12-23T21:31:51.997Z,28.40
2022-12-23T21:34:19.709Z,26.40
2022-12-23T21:36:47.690Z,23.00
2022-12-23T21:39:16.627Z,30.80
2022-12-23T21:41:45.665Z,35.40
2022-12-23T21:44:16.100Z,41.60
2022-12-23T21:46:43.915Z,36.30
2022-12-23T21:49:11.985Z,35.00
2022-12-23T21:51:41.245Z,50.70
2022-12-23T21:54:11.425Z,73.20
2022-12-23T21:56:40.627Z,58.70
2022-12-23T21:59:12.622Z,64.30
2022-12-23T22:01:42.335Z,45.10
2022-12-23T22:04:11.359Z,40.30
2022-12-23T22:06:45.425Z,41.40
2022-12-23T22:09:16.177Z,52.50
2022-12-23T22:11:44.766Z,34.10
2022-12-23T22:14:16.035Z,23.40
2022-12-23T22:16:43.933Z,24.20
2022-12-23T22:19:12.471Z,24.80
2022-12-23T22:21:42.476Z,30.70
2022-12-23T22:24:10.547Z,23.60
2022-12-23T22:26:39.424Z,20.10
2022-12-23T22:29:07.250Z,23.70
2022-12-23T22:31:38.370Z,26.40
2022-12-23T22:34:07.592Z,23.50
2022-12-23T22:36:35.554Z,27.50
2022-12-23T22:39:04.620Z,25.90
2022-12-23T22:41:33.356Z,22.20
2022-12-23T22:44:01.090Z,21.30
2022-12-23T22:46:29.407Z,25.30
2022-12-23T22:48:58.802Z,22.70
2022-12-23T22:51:29.477Z,23.80
2022-12-23T22:53:57.883Z,22.50
2022-12-23T22:56:26.207Z,27.10
2022-12-23T22:58:55.243Z,28.20
2022-12-23T23:01:27.073Z,34.50
2022-12-23T23:03:57.442Z,41.30
2022-12-23T23:06:43.604Z,31.00
2022-12-23T23:09:17.734Z,27.50
2022-12-23T23:11:45.883Z,24.40
2022-12-23T23:14:13.720Z,28.10
2022-12-23T23:16:41.632Z,27.40
2022-12-23T23:19:11.287Z,26.90
2022-12-23T23:21:39.058Z,25.30
2022-12-23T23:24:07.401Z,25.20
2022-12-23T23:26:35.161Z,27.60
2022-12-23T23:29:02.903Z,24.40
2022-12-23T23:31:46.172Z,25.10
2022-12-23T23:34:14.308Z,24.00
2022-12-23T23:36:42.229Z,22.50
2022-12-23T23:39:12.197Z,22.10
2022-12-23T23:41:41.043Z,19.60
2022-12-23T23:44:09.932Z,18.10
2022-12-23T23:46:38.547Z,16.40
2022-12-23T23:49:06.387Z,13.90
2022-12-23T23:51:34.270Z,14.80
2022-12-23T23:54:01.921Z,14.30
2022-12-23T23:56:35.713Z,13.50
2022-12-23T23:59:06.160Z,13.60
